Norwegian Epic — C6XP7 — position and weather

sailwx.info

Track history (hours):
 
Tides and Currents Weather Stations Pressure Air Temp Water Temp Dewpoint Dewpoint Depression Visibility Wind Speed Wind Dir Waves Ship Positions

Norwegian Epic

Last reported at 2017-Mar-27 22:16 UTC. Time now 2017-Mar-30 04:55 UTC.
Position N 20°41' W 086°47'.

Length 329 m; draft 9.2 m.

Type: Passenger vessel. MMSI: 311018500.

Date/timePositionNaut miles runAvg speedWind from/ knotsBaromVisibWave heightAir tempDewpointWater temp
2017-Mar-27 22:16N 20°41' W 086°47'1217.5
2017-Mar-27 21:34N 20°34' W 086°57'3 3.1
2017-Mar-27 20:31N 20°31' W 086°57'0 0.0
2017-Mar-27 19:32N 20°31' W 086°57'0 0.0
2017-Mar-27 18:33N 20°31' W 086°57'0 0.0
2017-Mar-27 17:33N 20°31' W 086°57'0 0.0
2017-Mar-27 16:31N 20°31' W 086°57'0 0.0
2017-Mar-27 15:32N 20°31' W 086°57'0 0.0
2017-Mar-27 14:32N 20°31' W 086°57'0 0.0
2017-Mar-27 13:33N 20°31' W 086°57'0 0.0
2017-Mar-27 12:31N 20°31' W 086°57'3 2.8
2017-Mar-27 11:33N 20°33' W 086°57'49818.2
2017-Mar-26 08:06N 25°28' W 079°40'1119.4
2017-Mar-26 07:33N 25°38' W 079°40'2019.6
2017-Mar-26 06:33N 25°57' W 079°35'  
2017-Mar-22 09:33N 18°11' W 064°53'22 2.1
2017-Mar-21 23:04N 18°20' W 064°32'4 7.9
2017-Mar-21 22:33N 18°24' W 064°33'3 0.3
2017-Mar-21 11:10N 18°25' W 064°36'5 7.4
2017-Mar-21 10:34N 18°25' W 064°32'8 8.2
2017-Mar-21 09:34N 18°33' W 064°34'1111.5
2017-Mar-21 08:34N 18°39' W 064°44'  
Track history (hours):
 
Tides and Currents Weather Stations Pressure Air Temp Water Temp Dewpoint Dewpoint Depression Visibility Wind Speed Wind Dir Waves Ship Positions

Norwegian Epic

Last reported at 2017-Mar-27 22:16 UTC. Time now 2017-Mar-30 04:55 UTC.
Position N 20°41' W 086°47'.

Length 329 m; draft 9.2 m.

Type: Passenger vessel. MMSI: 311018500.

Date/timePositionNaut miles runAvg speedWind from/ knotsBaromVisibWave heightAir tempDewpointWater temp
2017-Mar-27 22:16N 20°41' W 086°47'1217.5
2017-Mar-27 21:34N 20°34' W 086°57'3 3.1
2017-Mar-27 20:31N 20°31' W 086°57'0 0.0
2017-Mar-27 19:32N 20°31' W 086°57'0 0.0
2017-Mar-27 18:33N 20°31' W 086°57'0 0.0
2017-Mar-27 17:33N 20°31' W 086°57'0 0.0
2017-Mar-27 16:31N 20°31' W 086°57'0 0.0
2017-Mar-27 15:32N 20°31' W 086°57'0 0.0
2017-Mar-27 14:32N 20°31' W 086°57'0 0.0
2017-Mar-27 13:33N 20°31' W 086°57'0 0.0
2017-Mar-27 12:31N 20°31' W 086°57'3 2.8
2017-Mar-27 11:33N 20°33' W 086°57'49818.2
2017-Mar-26 08:06N 25°28' W 079°40'1119.4
2017-Mar-26 07:33N 25°38' W 079°40'2019.6
2017-Mar-26 06:33N 25°57' W 079°35'  
2017-Mar-22 09:33N 18°11' W 064°53'22 2.1
2017-Mar-21 23:04N 18°20' W 064°32'4 7.9
2017-Mar-21 22:33N 18°24' W 064°33'3 0.3
2017-Mar-21 11:10N 18°25' W 064°36'5 7.4
2017-Mar-21 10:34N 18°25' W 064°32'8 8.2
2017-Mar-21 09:34N 18°33' W 064°34'1111.5
2017-Mar-21 08:34N 18°39' W 064°44'  

Dump ship's entire track history